sensor_id;sensor_type;location;lat;lon;timestamp;pressure;altitude;pressure_sealevel;temperature;humidity
72210;BME280;60113;48.762;12.302;2023-04-09T00:00:14;97899.19;;;1.87;86.68
72210;BME280;60113;48.762;12.302;2023-04-09T00:02:40;97894.00;;;1.87;88.80
72210;BME280;60113;48.762;12.302;2023-04-09T00:05:06;97893.94;;;1.89;90.62
72210;BME280;60113;48.762;12.302;2023-04-09T00:07:31;97896.72;;;1.82;83.68
72210;BME280;60113;48.762;12.302;2023-04-09T00:09:57;97901.81;;;1.85;83.76
72210;BME280;60113;48.762;12.302;2023-04-09T00:12:22;97898.44;;;1.82;79.68
72210;BME280;60113;48.762;12.302;2023-04-09T00:14:48;97899.31;;;1.82;75.90
72210;BME280;60113;48.762;12.302;2023-04-09T00:17:13;97889.75;;;1.84;80.23
72210;BME280;60113;48.762;12.302;2023-04-09T00:19:39;97904.44;;;1.84;85.47
72210;BME280;60113;48.762;12.302;2023-04-09T00:22:04;97893.31;;;1.80;81.49
72210;BME280;60113;48.762;12.302;2023-04-09T00:24:29;97894.19;;;1.81;87.48
72210;BME280;60113;48.762;12.302;2023-04-09T00:26:55;97892.59;;;1.77;82.02
72210;BME280;60113;48.762;12.302;2023-04-09T00:29:21;97881.41;;;1.74;81.63
72210;BME280;60113;48.762;12.302;2023-04-09T00:31:47;97875.34;;;1.74;80.78
72210;BME280;60113;48.762;12.302;2023-04-09T00:34:12;97874.44;;;1.77;85.58
72210;BME280;60113;48.762;12.302;2023-04-09T00:36:38;97879.84;;;1.69;81.34
72210;BME280;60113;48.762;12.302;2023-04-09T00:39:03;97895.25;;;1.73;85.93
72210;BME280;60113;48.762;12.302;2023-04-09T00:41:28;97890.97;;;1.72;91.49
72210;BME280;60113;48.762;12.302;2023-04-09T00:43:56;97889.31;;;1.70;90.35
72210;BME280;60113;48.762;12.302;2023-04-09T00:46:22;97898.13;;;1.64;86.83
72210;BME280;60113;48.762;12.302;2023-04-09T00:48:47;97900.81;;;1.61;83.70
72210;BME280;60113;48.762;12.302;2023-04-09T00:51:13;97904.44;;;1.54;84.20
72210;BME280;60113;48.762;12.302;2023-04-09T00:53:38;97906.44;;;1.45;81.10
72210;BME280;60113;48.762;12.302;2023-04-09T00:56:03;97904.13;;;1.34;79.59
72210;BME280;60113;48.762;12.302;2023-04-09T00:58:29;97908.00;;;1.19;72.99
72210;BME280;60113;48.762;12.302;2023-04-09T01:00:55;97912.69;;;1.05;69.86
72210;BME280;60113;48.762;12.302;2023-04-09T01:03:20;97908.63;;;0.96;77.57
72210;BME280;60113;48.762;12.302;2023-04-09T01:11:23;97916.47;;;0.58;69.05
72210;BME280;60113;48.762;12.302;2023-04-09T01:13:37;97918.53;;;0.45;72.80
72210;BME280;60113;48.762;12.302;2023-04-09T01:16:03;97913.63;;;0.34;76.93
72210;BME280;60113;48.762;12.302;2023-04-09T01:18:34;97922.41;;;0.25;84.40
72210;BME280;60113;48.762;12.302;2023-04-09T01:21:14;97917.56;;;0.11;84.23
72210;BME280;60113;48.762;12.302;2023-04-09T01:23:44;97917.06;;;-0.05;72.24
72210;BME280;60113;48.762;12.302;2023-04-09T01:26:22;97917.31;;;-0.16;79.54
72210;BME280;60113;48.762;12.302;2023-04-09T01:28:53;97914.09;;;-0.28;81.59
72210;BME280;60113;48.762;12.302;2023-04-09T01:31:20;97898.97;;;-0.45;70.04
72210;BME280;60113;48.762;12.302;2023-04-09T01:33:49;97902.56;;;-0.52;76.32
72210;BME280;60113;48.762;12.302;2023-04-09T01:36:15;97903.47;;;-0.55;87.98
72210;BME280;60113;48.762;12.302;2023-04-09T01:38:41;97904.59;;;-0.67;84.08
72210;BME280;60113;48.762;12.302;2023-04-09T01:41:08;97896.94;;;-0.71;90.02
72210;BME280;60113;48.762;12.302;2023-04-09T01:43:33;97910.97;;;-0.86;84.05
72210;BME280;60113;48.762;12.302;2023-04-09T01:46:01;97907.72;;;-0.96;78.28
72210;BME280;60113;48.762;12.302;2023-04-09T01:48:28;97904.38;;;-1.02;86.61
72210;BME280;60113;48.762;12.302;2023-04-09T01:50:53;97905.41;;;-1.10;90.50
72210;BME280;60113;48.762;12.302;2023-04-09T01:53:20;97906.47;;;-1.24;85.98
72210;BME280;60113;48.762;12.302;2023-04-09T01:55:45;97908.31;;;-1.29;77.48
72210;BME280;60113;48.762;12.302;2023-04-09T01:58:11;97908.25;;;-1.26;89.59
72210;BME280;60113;48.762;12.302;2023-04-09T02:00:42;97909.28;;;-1.35;83.10
72210;BME280;60113;48.762;12.302;2023-04-09T02:05:36;97909.53;;;-1.51;81.59
72210;BME280;60113;48.762;12.302;2023-04-09T02:08:02;97922.44;;;-1.51;88.56
72210;BME280;60113;48.762;12.302;2023-04-09T02:10:30;97919.00;;;-1.53;88.05
72210;BME280;60113;48.762;12.302;2023-04-09T02:12:55;97921.63;;;-1.56;88.15
72210;BME280;60113;48.762;12.302;2023-04-09T02:15:22;97924.34;;;-1.64;87.61
72210;BME280;60113;48.762;12.302;2023-04-09T02:17:48;97917.63;;;-1.72;86.48
72210;BME280;60113;48.762;12.302;2023-04-09T02:20:17;97927.22;;;-1.84;84.82
72210;BME280;60113;48.762;12.302;2023-04-09T02:22:43;97935.09;;;-1.95;76.53
72210;BME280;60113;48.762;12.302;2023-04-09T02:25:08;97931.84;;;-2.05;73.05
72210;BME280;60113;48.762;12.302;2023-04-09T02:27:34;97932.78;;;-2.14;75.62
72210;BME280;60113;48.762;12.302;2023-04-09T02:29:59;97939.75;;;-2.19;78.29
72210;BME280;60113;48.762;12.302;2023-04-09T02:32:25;97937.16;;;-2.19;83.95
72210;BME280;60113;48.762;12.302;2023-04-09T02:34:50;97942.41;;;-2.25;76.64
72210;BME280;60113;48.762;12.302;2023-04-09T02:37:16;97935.50;;;-2.24;82.50
72210;BME280;60113;48.762;12.302;2023-04-09T02:39:42;97942.41;;;-2.25;83.28
72210;BME280;60113;48.762;12.302;2023-04-09T02:42:07;97940.59;;;-2.20;85.45
72210;BME280;60113;48.762;12.302;2023-04-09T02:44:33;97936.28;;;-2.18;81.19
72210;BME280;60113;48.762;12.302;2023-04-09T02:46:58;97936.22;;;-2.11;83.56
72210;BME280;60113;48.762;12.302;2023-04-09T02:49:24;97936.13;;;-2.07;86.49
72210;BME280;60113;48.762;12.302;2023-04-09T02:51:49;97937.03;;;-2.08;84.42
72210;BME280;60113;48.762;12.302;2023-04-09T02:54:14;97939.56;;;-2.05;82.94
72210;BME280;60113;48.762;12.302;2023-04-09T02:56:40;97931.81;;;-2.03;77.57
72210;BME280;60113;48.762;12.302;2023-04-09T02:59:05;97931.72;;;-1.98;78.45
72210;BME280;60113;48.762;12.302;2023-04-09T03:01:31;97929.09;;;-1.95;81.31
72210;BME280;60113;48.762;12.302;2023-04-09T03:03:56;97925.59;;;-1.90;86.56
72210;BME280;60113;48.762;12.302;2023-04-09T03:06:21;97927.28;;;-1.87;89.78
72210;BME280;60113;48.762;12.302;2023-04-09T03:08:47;97925.59;;;-1.90;87.68
72210;BME280;60113;48.762;12.302;2023-04-09T03:11:12;97926.44;;;-1.89;87.63
72210;BME280;60113;48.762;12.302;2023-04-09T03:13:37;97924.78;;;-1.93;86.34
72210;BME280;60113;48.762;12.302;2023-04-09T03:16:03;97929.13;;;-1.97;83.88
72210;BME280;60113;48.762;12.302;2023-04-09T03:18:28;97931.72;;;-1.98;82.70
72210;BME280;60113;48.762;12.302;2023-04-09T03:20:53;97918.81;;;-1.97;81.40
72210;BME280;60113;48.762;12.302;2023-04-09T03:23:19;97919.59;;;-1.92;79.32
72210;BME280;60113;48.762;12.302;2023-04-09T03:25:45;97917.84;;;-1.88;78.48
72210;BME280;60113;48.762;12.302;2023-04-09T03:28:10;97919.53;;;-1.87;77.15
72210;BME280;60113;48.762;12.302;2023-04-09T03:30:35;97915.25;;;-1.86;85.79
72210;BME280;60113;48.762;12.302;2023-04-09T03:33:01;97917.88;;;-1.90;89.23
72210;BME280;60113;48.762;12.302;2023-04-09T03:35:26;97908.47;;;-1.94;83.03
72210;BME280;60113;48.762;12.302;2023-04-09T03:37:51;97917.06;;;-1.95;86.89
72210;BME280;60113;48.762;12.302;2023-04-09T03:40:17;97911.09;;;-1.98;81.52
72210;BME280;60113;48.762;12.302;2023-04-09T03:42:42;97912.84;;;-1.97;80.61
72210;BME280;60113;48.762;12.302;2023-04-09T03:45:08;97916.22;;;-1.95;82.27
72210;BME280;60113;48.762;12.302;2023-04-09T03:47:33;97912.81;;;-1.96;82.75
72210;BME280;60113;48.762;12.302;2023-04-09T03:49:59;97913.63;;;-1.94;86.46
72210;BME280;60113;48.762;12.302;2023-04-09T03:52:25;97918.75;;;-1.94;85.48
72210;BME280;60113;48.762;12.302;2023-04-09T03:54:50;97907.59;;;-1.91;88.58
72210;BME280;60113;48.762;12.302;2023-04-09T03:57:15;97908.50;;;-1.97;85.78
72210;BME280;60113;48.762;12.302;2023-04-09T03:59:41;97908.59;;;-2.00;85.85
72210;BME280;60113;48.762;12.302;2023-04-09T04:02:06;97910.38;;;-2.05;84.85
72210;BME280;60113;48.762;12.302;2023-04-09T04:04:31;97916.44;;;-2.09;82.91
72210;BME280;60113;48.762;12.302;2023-04-09T04:06:57;97921.56;;;-2.08;75.53
72210;BME280;60113;48.762;12.302;2023-04-09T04:09:22;97922.25;;;-1.96;91.00
72210;BME280;60113;48.762;12.302;2023-04-09T04:11:47;97923.91;;;-1.94;84.67
72210;BME280;60113;48.762;12.302;2023-04-09T04:14:13;97928.16;;;-1.88;78.53
72210;BME280;60113;48.762;12.302;2023-04-09T04:16:39;97922.88;;;-1.79;83.98
72210;BME280;60113;48.762;12.302;2023-04-09T04:19:05;97928.81;;;-1.75;80.83
72210;BME280;60113;48.762;12.302;2023-04-09T04:21:30;97935.59;;;-1.69;80.27
72210;BME280;60113;48.762;12.302;2023-04-09T04:23:56;97930.34;;;-1.63;83.45
72210;BME280;60113;48.762;12.302;2023-04-09T04:26:21;97928.56;;;-1.59;85.49
72210;BME280;60113;48.762;12.302;2023-04-09T04:28:46;97926.75;;;-1.53;89.36
72210;BME280;60113;48.762;12.302;2023-04-09T04:31:12;97930.16;;;-1.51;89.16
72210;BME280;60113;48.762;12.302;2023-04-09T04:33:38;97936.13;;;-1.48;89.85
72210;BME280;60113;48.762;12.302;2023-04-09T04:36:12;97942.97;;;-1.46;90.26
72210;BME280;60113;48.762;12.302;2023-04-09T04:38:38;97939.50;;;-1.45;89.43
72210;BME280;60113;48.762;12.302;2023-04-09T04:41:04;97942.97;;;-1.46;89.67
72210;BME280;60113;48.762;12.302;2023-04-09T04:43:29;97935.25;;;-1.46;89.48
72210;BME280;60113;48.762;12.302;2023-04-09T04:45:55;97939.50;;;-1.43;91.10
72210;BME280;60113;48.762;12.302;2023-04-09T04:48:20;97933.41;;;-1.41;91.90
72210;BME280;60113;48.762;12.302;2023-04-09T04:50:46;97944.63;;;-1.42;90.64
72210;BME280;60113;48.762;12.302;2023-04-09T04:53:12;97942.03;;;-1.42;88.51
72210;BME280;60113;48.762;12.302;2023-04-09T04:55:37;97948.00;;;-1.36;85.77
72210;BME280;60113;48.762;12.302;2023-04-09T04:58:06;97950.56;;;-1.36;81.18
72210;BME280;60113;48.762;12.302;2023-04-09T05:00:31;97939.28;;;-1.31;82.14
72210;BME280;60113;48.762;12.302;2023-04-09T05:02:57;97945.25;;;-1.29;82.96
72210;BME280;60113;48.762;12.302;2023-04-09T05:05:22;97945.16;;;-1.22;85.06
72210;BME280;60113;48.762;12.302;2023-04-09T05:07:48;97933.94;;;-1.20;86.84
72210;BME280;60113;48.762;12.302;2023-04-09T05:10:13;97942.50;;;-1.18;87.88
72210;BME280;60113;48.762;12.302;2023-04-09T05:12:39;97946.75;;;-1.14;86.66
72210;BME280;60113;48.762;12.302;2023-04-09T05:15:04;97949.25;;;-1.09;88.89
72210;BME280;60113;48.762;12.302;2023-04-09T05:17:31;97946.63;;;-1.07;87.78
72210;BME280;60113;48.762;12.302;2023-04-09T05:19:56;97941.38;;;-1.03;89.51
72210;BME280;60113;48.762;12.302;2023-04-09T05:22:21;97937.88;;;-1.00;90.01
72210;BME280;60113;48.762;12.302;2023-04-09T05:24:47;97933.53;;;-0.96;89.30
72210;BME280;60113;48.762;12.302;2023-04-09T05:27:12;97924.00;;;-0.93;90.93
72210;BME280;60113;48.762;12.302;2023-04-09T05:29:38;97929.94;;;-0.88;90.53
72210;BME280;60113;48.762;12.302;2023-04-09T05:32:03;97923.00;;;-0.85;87.53
72210;BME280;60113;48.762;12.302;2023-04-09T05:34:29;97928.88;;;-0.79;87.46
72210;BME280;60113;48.762;12.302;2023-04-09T05:36:56;97939.09;;;-0.72;83.04
72210;BME280;60113;48.762;12.302;2023-04-09T05:39:21;97939.78;;;-0.63;77.00
72210;BME280;60113;48.762;12.302;2023-04-09T05:41:46;97945.63;;;-0.54;74.28
72210;BME280;60113;48.762;12.302;2023-04-09T05:44:12;97932.56;;;-0.46;73.98
72210;BME280;60113;48.762;12.302;2023-04-09T05:46:37;97942.69;;;-0.37;74.21
72210;BME280;60113;48.762;12.302;2023-04-09T05:49:02;97943.31;;;-0.24;82.88
72210;BME280;60113;48.762;12.302;2023-04-09T05:51:28;97931.97;;;-0.18;83.63
72210;BME280;60113;48.762;12.302;2023-04-09T05:53:53;97938.69;;;-0.08;85.18
72210;BME280;60113;48.762;12.302;2023-04-09T05:56:19;97943.44;;;0.09;93.39
72210;BME280;60113;48.762;12.302;2023-04-09T05:58:46;97946.69;;;0.19;96.36
72210;BME280;60113;48.762;12.302;2023-04-09T06:01:12;97957.75;;;0.26;98.25
72210;BME280;60113;48.762;12.302;2023-04-09T06:03:37;97961.91;;;0.32;98.37
72210;BME280;60113;48.762;12.302;2023-04-09T06:06:04;97967.72;;;0.42;98.04
72210;BME280;60113;48.762;12.302;2023-04-09T06:08:29;97961.44;;;0.52;97.03
72210;BME280;60113;48.762;12.302;2023-04-09T06:10:55;97962.00;;;0.65;96.42
72210;BME280;60113;48.762;12.302;2023-04-09T06:13:20;97955.63;;;0.79;94.94
72210;BME280;60113;48.762;12.302;2023-04-09T06:15:45;97953.50;;;0.95;93.05
72210;BME280;60113;48.762;12.302;2023-04-09T06:18:12;97953.97;;;1.11;93.04
72210;BME280;60113;48.762;12.302;2023-04-09T06:20:37;97958.72;;;1.27;93.31
72210;BME280;60113;48.762;12.302;2023-04-09T06:23:02;97952.34;;;1.39;91.57
72210;BME280;60113;48.762;12.302;2023-04-09T06:25:28;97958.84;;;1.54;91.71
72210;BME280;60113;48.762;12.302;2023-04-09T06:27:53;97958.53;;;1.65;91.50
72210;BME280;60113;48.762;12.302;2023-04-09T06:30:19;97958.25;;;1.75;91.40
72210;BME280;60113;48.762;12.302;2023-04-09T06:32:44;97956.16;;;1.89;92.02
72210;BME280;60113;48.762;12.302;2023-04-09T06:35:10;97954.28;;;1.94;90.27
72210;BME280;60113;48.762;12.302;2023-04-09T06:37:35;97956.53;;;2.05;88.89
72210;BME280;60113;48.762;12.302;2023-04-09T06:40:01;97954.50;;;2.15;89.24
72210;BME280;60113;48.762;12.302;2023-04-09T06:42:27;97960.38;;;2.21;86.31
72210;BME280;60113;48.762;12.302;2023-04-09T06:44:52;97966.88;;;2.35;86.72
72210;BME280;60113;48.762;12.302;2023-04-09T06:47:18;97963.13;;;2.44;86.11
72210;BME280;60113;48.762;12.302;2023-04-09T06:49:43;97968.06;;;2.52;84.76
72210;BME280;60113;48.762;12.302;2023-04-09T06:52:08;97967.78;;;2.61;84.95
72210;BME280;60113;48.762;12.302;2023-04-09T06:54:34;97971.88;;;2.68;86.91
72210;BME280;60113;48.762;12.302;2023-04-09T06:56:59;97973.44;;;2.74;86.73
72210;BME280;60113;48.762;12.302;2023-04-09T06:59:25;97978.44;;;2.80;88.02
72210;BME280;60113;48.762;12.302;2023-04-09T07:01:50;97975.59;;;2.88;87.83
72210;BME280;60113;48.762;12.302;2023-04-09T07:04:16;97974.47;;;2.95;88.86
72210;BME280;60113;48.762;12.302;2023-04-09T07:06:41;97980.31;;;3.02;88.34
72210;BME280;60113;48.762;12.302;2023-04-09T07:09:06;97991.31;;;3.09;89.95
72210;BME280;60113;48.762;12.302;2023-04-09T07:11:32;97975.59;;;3.13;89.32
72210;BME280;60113;48.762;12.302;2023-04-09T07:13:58;97982.25;;;3.22;90.27
72210;BME280;60113;48.762;12.302;2023-04-09T07:16:23;97986.31;;;3.30;91.44
72210;BME280;60113;48.762;12.302;2023-04-09T07:18:48;97986.88;;;3.38;91.68
72210;BME280;60113;48.762;12.302;2023-04-09T07:21:15;97988.31;;;3.47;90.71
72210;BME280;60113;48.762;12.302;2023-04-09T07:23:40;97987.34;;;3.49;91.31
72210;BME280;60113;48.762;12.302;2023-04-09T07:26:05;97991.59;;;3.52;90.76
72210;BME280;60113;48.762;12.302;2023-04-09T07:28:31;97987.94;;;3.58;91.11
72210;BME280;60113;48.762;12.302;2023-04-09T07:30:57;97987.72;;;3.64;91.36
72210;BME280;60113;48.762;12.302;2023-04-09T07:33:22;97989.34;;;3.67;91.16
72210;BME280;60113;48.762;12.302;2023-04-09T07:35:48;97995.53;;;3.64;91.75
72210;BME280;60113;48.762;12.302;2023-04-09T07:38:13;97986.91;;;3.62;91.87
72210;BME280;60113;48.762;12.302;2023-04-09T07:40:38;97986.88;;;3.63;92.58
72210;BME280;60113;48.762;12.302;2023-04-09T07:43:04;97989.19;;;3.71;92.86
72210;BME280;60113;48.762;12.302;2023-04-09T07:45:30;97991.41;;;3.82;91.68
72210;BME280;60113;48.762;12.302;2023-04-09T07:47:56;97984.72;;;3.99;91.45
72210;BME280;60113;48.762;12.302;2023-04-09T07:50:21;97980.03;;;4.09;86.32
72210;BME280;60113;48.762;12.302;2023-04-09T07:52:47;97983.16;;;4.17;87.46
72210;BME280;60113;48.762;12.302;2023-04-09T07:55:12;97983.66;;;4.27;89.38
72210;BME280;60113;48.762;12.302;2023-04-09T07:57:37;97989.31;;;4.38;89.28
72210;BME280;60113;48.762;12.302;2023-04-09T08:00:03;97987.25;;;4.47;86.45
72210;BME280;60113;48.762;12.302;2023-04-09T08:02:30;97993.75;;;4.59;87.11
72210;BME280;60113;48.762;12.302;2023-04-09T08:04:56;98002.13;;;4.66;86.57
72210;BME280;60113;48.762;12.302;2023-04-09T08:07:21;97997.47;;;4.74;85.98
72210;BME280;60113;48.762;12.302;2023-04-09T08:09:47;97999.03;;;4.78;86.04
72210;BME280;60113;48.762;12.302;2023-04-09T08:12:12;97994.50;;;4.83;85.73
72210;BME280;60113;48.762;12.302;2023-04-09T08:14:38;97996.72;;;4.93;85.10
72210;BME280;60113;48.762;12.302;2023-04-09T08:17:03;97996.41;;;5.00;85.19
72210;BME280;60113;48.762;12.302;2023-04-09T08:19:29;97997.06;;;5.06;83.95
72210;BME280;60113;48.762;12.302;2023-04-09T08:21:54;98000.44;;;5.08;85.42
72210;BME280;60113;48.762;12.302;2023-04-09T08:24:20;98002.00;;;5.12;83.16
72210;BME280;60113;48.762;12.302;2023-04-09T08:26:46;98000.94;;;5.18;85.24
72210;BME280;60113;48.762;12.302;2023-04-09T08:29:12;98007.81;;;5.19;85.40
72210;BME280;60113;48.762;12.302;2023-04-09T08:31:37;98004.34;;;5.18;84.15
72210;BME280;60113;48.762;12.302;2023-04-09T08:34:04;98005.59;;;5.09;83.82
72210;BME280;60113;48.762;12.302;2023-04-09T08:36:29;98005.41;;;5.14;83.92
72210;BME280;60113;48.762;12.302;2023-04-09T08:38:55;98007.81;;;5.19;82.91
72210;BME280;60113;48.762;12.302;2023-04-09T08:41:22;98003.84;;;5.31;84.21
72210;BME280;60113;48.762;12.302;2023-04-09T08:43:48;98000.91;;;5.38;80.53
72210;BME280;60113;48.762;12.302;2023-04-09T08:46:16;98005.84;;;5.45;80.51
72210;BME280;60113;48.762;12.302;2023-04-09T08:48:45;98013.41;;;5.51;79.27
72210;BME280;60113;48.762;12.302;2023-04-09T08:51:17;98012.22;;;5.58;81.50
72210;BME280;60113;48.762;12.302;2023-04-09T08:53:46;98016.03;;;5.51;80.43
72210;BME280;60113;48.762;12.302;2023-04-09T08:56:12;98015.88;;;5.54;80.08
72210;BME280;60113;48.762;12.302;2023-04-09T08:58:41;98019.22;;;5.58;79.59
72210;BME280;60113;48.762;12.302;2023-04-09T09:03:52;98025.06;;;5.63;80.94
72210;BME280;60113;48.762;12.302;2023-04-09T09:06:26;98020.31;;;5.73;80.16
72210;BME280;60113;48.762;12.302;2023-04-09T09:09:03;98025.91;;;5.84;79.71
72210;BME280;60113;48.762;12.302;2023-04-09T09:11:29;98020.00;;;6.00;79.82
72210;BME280;60113;48.762;12.302;2023-04-09T09:14:14;98015.38;;;6.07;76.70
72210;BME280;60113;48.762;12.302;2023-04-09T09:16:41;98011.00;;;6.07;77.67
72210;BME280;60113;48.762;12.302;2023-04-09T09:19:08;98016.28;;;6.06;78.86
72210;BME280;60113;48.762;12.302;2023-04-09T09:21:33;98017.97;;;6.07;78.31
72210;BME280;60113;48.762;12.302;2023-04-09T09:24:00;98017.03;;;5.88;77.53
72210;BME280;60113;48.762;12.302;2023-04-09T09:26:27;98027.34;;;5.71;78.33
72210;BME280;60113;48.762;12.302;2023-04-09T09:28:53;98020.31;;;5.73;78.93
72210;BME280;60113;48.762;12.302;2023-04-09T09:31:21;98021.63;;;5.62;77.87
72210;BME280;60113;48.762;12.302;2023-04-09T09:33:46;98020.63;;;5.65;77.84
72210;BME280;60113;48.762;12.302;2023-04-09T09:36:12;98022.97;;;5.71;75.91
72210;BME280;60113;48.762;12.302;2023-04-09T09:38:51;98015.81;;;5.77;77.51
72210;BME280;60113;48.762;12.302;2023-04-09T09:41:20;98020.63;;;5.65;79.30
72210;BME280;60113;48.762;12.302;2023-04-09T09:43:45;98020.38;;;5.71;79.22
72210;BME280;60113;48.762;12.302;2023-04-09T09:46:11;98010.38;;;5.81;78.51
72210;BME280;60113;48.762;12.302;2023-04-09T09:48:36;98017.94;;;5.87;77.80
72210;BME280;60113;48.762;12.302;2023-04-09T09:51:02;98019.34;;;5.95;77.69
72210;BME280;60113;48.762;12.302;2023-04-09T09:53:32;98009.28;;;6.06;77.09
72210;BME280;60113;48.762;12.302;2023-04-09T09:56:00;98009.22;;;6.27;77.09
72210;BME280;60113;48.762;12.302;2023-04-09T09:58:27;98010.69;;;6.52;75.97
72210;BME280;60113;48.762;12.302;2023-04-09T10:00:56;98014.69;;;6.79;75.15
72210;BME280;60113;48.762;12.302;2023-04-09T10:03:24;98006.53;;;7.03;74.45
72210;BME280;60113;48.762;12.302;2023-04-09T10:05:49;98010.78;;;7.23;73.94
72210;BME280;60113;48.762;12.302;2023-04-09T10:08:15;98007.16;;;7.43;74.22
72210;BME280;60113;48.762;12.302;2023-04-09T10:10:41;98009.53;;;7.66;72.67
72210;BME280;60113;48.762;12.302;2023-04-09T10:13:15;97998.19;;;7.83;71.31
72210;BME280;60113;48.762;12.302;2023-04-09T10:15:43;98003.50;;;7.97;70.98
72210;BME280;60113;48.762;12.302;2023-04-09T10:18:09;98003.91;;;7.90;70.62
72210;BME280;60113;48.762;12.302;2023-04-09T10:20:41;98001.28;;;7.90;71.17
72210;BME280;60113;48.762;12.302;2023-04-09T10:23:08;98001.06;;;7.94;71.47
72210;BME280;60113;48.762;12.302;2023-04-09T10:25:35;97997.06;;;7.87;70.37
72210;BME280;60113;48.762;12.302;2023-04-09T10:28:01;98000.31;;;7.92;70.68
72210;BME280;60113;48.762;12.302;2023-04-09T10:30:31;97997.50;;;7.79;70.83
72210;BME280;60113;48.762;12.302;2023-04-09T10:33:07;97989.19;;;7.71;71.28
72210;BME280;60113;48.762;12.302;2023-04-09T10:35:33;97989.09;;;7.72;73.19
72210;BME280;60113;48.762;12.302;2023-04-09T10:37:58;97996.16;;;7.88;73.96
72210;BME280;60113;48.762;12.302;2023-04-09T10:40:24;97998.38;;;8.12;72.16
72210;BME280;60113;48.762;12.302;2023-04-09T10:42:52;97998.97;;;8.33;68.50
72210;BME280;60113;48.762;12.302;2023-04-09T10:45:18;97986.06;;;8.79;66.02
72210;BME280;60113;48.762;12.302;2023-04-09T10:47:47;97987.16;;;9.50;67.45
72210;BME280;60113;48.762;12.302;2023-04-09T10:50:17;97975.03;;;10.21;67.59
72210;BME280;60113;48.762;12.302;2023-04-09T10:52:43;97978.56;;;10.49;64.72
72210;BME280;60113;48.762;12.302;2023-04-09T10:55:09;97977.97;;;10.44;61.31
72210;BME280;60113;48.762;12.302;2023-04-09T10:57:35;97972.69;;;10.86;58.98
72210;BME280;60113;48.762;12.302;2023-04-09T11:00:00;97976.31;;;10.28;57.77
72210;BME280;60113;48.762;12.302;2023-04-09T11:05:08;97978.56;;;9.92;58.31
72210;BME280;60113;48.762;12.302;2023-04-09T11:07:38;97976.41;;;9.84;60.72
72210;BME280;60113;48.762;12.302;2023-04-09T11:10:04;97969.53;;;9.82;61.19
72210;BME280;60113;48.762;12.302;2023-04-09T11:12:30;97977.03;;;9.88;62.35
72210;BME280;60113;48.762;12.302;2023-04-09T11:14:55;97976.69;;;9.65;63.42
72210;BME280;60113;48.762;12.302;2023-04-09T11:17:20;97976.19;;;9.44;63.29
72210;BME280;60113;48.762;12.302;2023-04-09T11:19:46;97979.72;;;9.28;62.19
72210;BME280;60113;48.762;12.302;2023-04-09T11:22:11;97975.53;;;9.40;62.08
72210;BME280;60113;48.762;12.302;2023-04-09T11:24:43;97970.31;;;9.55;62.95
72210;BME280;60113;48.762;12.302;2023-04-09T11:27:10;97968.00;;;8.88;61.90
72210;BME280;60113;48.762;12.302;2023-04-09T11:29:36;97973.38;;;8.71;63.57
72210;BME280;60113;48.762;12.302;2023-04-09T11:32:01;97962.75;;;8.88;64.87
72210;BME280;60113;48.762;12.302;2023-04-09T11:34:29;97967.91;;;8.90;62.99
72210;BME280;60113;48.762;12.302;2023-04-09T11:36:55;97971.47;;;8.58;63.57
72210;BME280;60113;48.762;12.302;2023-04-09T11:39:23;97972.97;;;8.62;64.39
72210;BME280;60113;48.762;12.302;2023-04-09T11:41:48;97968.84;;;8.58;63.85
72210;BME280;60113;48.762;12.302;2023-04-09T11:44:14;97966.13;;;8.60;63.75
72210;BME280;60113;48.762;12.302;2023-04-09T11:46:39;97977.22;;;8.65;63.72
72210;BME280;60113;48.762;12.302;2023-04-09T11:49:05;97973.72;;;8.48;63.87
72210;BME280;60113;48.762;12.302;2023-04-09T11:51:31;97975.19;;;8.54;64.34
72210;BME280;60113;48.762;12.302;2023-04-09T11:54:03;97974.06;;;8.58;64.42
72210;BME280;60113;48.762;12.302;2023-04-09T11:56:29;97973.06;;;8.61;63.24
72210;BME280;60113;48.762;12.302;2023-04-09T11:58:58;97978.28;;;8.61;62.84
72210;BME280;60113;48.762;12.302;2023-04-09T12:01:29;97978.63;;;8.71;63.31
72210;BME280;60113;48.762;12.302;2023-04-09T12:03:55;97972.31;;;8.59;61.07
72210;BME280;60113;48.762;12.302;2023-04-09T12:06:21;97975.41;;;8.66;61.60
72210;BME280;60113;48.762;12.302;2023-04-09T12:08:51;97976.41;;;8.79;61.33
72210;BME280;60113;48.762;12.302;2023-04-09T12:11:16;97976.28;;;8.97;61.59
72210;BME280;60113;48.762;12.302;2023-04-09T12:13:42;97976.06;;;9.16;62.16
72210;BME280;60113;48.762;12.302;2023-04-09T12:16:09;97965.63;;;9.45;61.48
72210;BME280;60113;48.762;12.302;2023-04-09T12:18:35;97953.97;;;9.79;60.14
72210;BME280;60113;48.762;12.302;2023-04-09T12:21:00;97948.56;;;10.38;60.49
72210;BME280;60113;48.762;12.302;2023-04-09T12:23:26;97955.66;;;10.92;59.88
72210;BME280;60113;48.762;12.302;2023-04-09T12:25:51;97953.63;;;11.23;57.73
72210;BME280;60113;48.762;12.302;2023-04-09T12:28:18;97952.47;;;11.66;58.62
72210;BME280;60113;48.762;12.302;2023-04-09T12:30:44;97944.06;;;11.61;53.61
72210;BME280;60113;48.762;12.302;2023-04-09T12:33:09;97954.97;;;11.03;52.84
72210;BME280;60113;48.762;12.302;2023-04-09T12:35:34;97958.69;;;10.85;54.88
72210;BME280;60113;48.762;12.302;2023-04-09T12:38:02;97952.22;;;10.91;55.39
72210;BME280;60113;48.762;12.302;2023-04-09T12:40:29;97961.88;;;10.91;56.41
72210;BME280;60113;48.762;12.302;2023-04-09T12:42:54;97956.06;;;10.72;56.32
72210;BME280;60113;48.762;12.302;2023-04-09T12:45:19;97952.25;;;10.63;57.65
72210;BME280;60113;48.762;12.302;2023-04-09T12:47:46;97941.53;;;10.67;56.66
72210;BME280;60113;48.762;12.302;2023-04-09T12:50:12;97949.91;;;10.86;58.19
72210;BME280;60113;48.762;12.302;2023-04-09T12:52:38;97944.44;;;10.90;55.48
72210;BME280;60113;48.762;12.302;2023-04-09T12:55:04;97942.34;;;11.08;56.68
72210;BME280;60113;48.762;12.302;2023-04-09T12:57:31;97939.84;;;11.19;53.23
72210;BME280;60113;48.762;12.302;2023-04-09T12:59:56;97935.19;;;11.49;51.90
72210;BME280;60113;48.762;12.302;2023-04-09T13:02:22;97930.78;;;11.49;51.87